echo '';

Nearby METAR Reports

 

ENRY - Rygge (nor-Afb), Norway
Distance from station: NV 23km
Oppdatert: 20/01/2019 19:50
Overskyet
Overskyet
 Vind fra Ø
Vind: Ø 2 km/h
Temperatur: -6°C
Duggpunkt: -8°C
Fuktighet: 86%
Barometer: 1016 hPa
Clouds: Overskyet
Visibility: 16 miles
Cloud details: Overskyet 1158 m
2019/01/20 18:50 ENRY 201850Z AUTO 09001KT 9999NDV OVC038/// M06/M08 Q1016
ENTO - Torp (civ/Nor-Af, Norway
Distance from station: V 47km
Oppdatert: 20/01/2019 19:50
Hovedsaklig skyet
Hovedsaklig skyet
 Vind fra calm
Vind: Stille
Temperatur: -3°C
Duggpunkt: -6°C
Fuktighet: 80%
Barometer: 1016 hPa
Clouds: Hovedsaklig skyet
Visibility: 10 km
Cloud details: Hovedsaklig skyet 1158 m
2019/01/20 18:50 ENTO 201850Z 00000KT 9999 BKN038 M03/M06 Q1016 NOSIG
 
ENSN - Skien/Geiterygge, Norway
Distance from station: V 87km
Oppdatert: 09/11/2015 09:50
NOT Current
Klart
Klart
 Vind fra SSV
Vind: SSV 19 km/h, Vindkast: 41 km/h
Temperatur: 7°C
Vindkjøling: 4°C
Duggpunkt: 3°C
Fuktighet: 76%
Barometer: 1000 hPa
Oversikt: Klart
Visibility: greater than 10 km
2015/11/09 08:50 ENSN 090850Z 20010G22KT 150V240 CAVOK 07/03 Q1000
ENGM - Oslo/Gardermoen, Norway
Distance from station: 0 107km
Oppdatert: 20/01/2019 19:50
Nearby fog, Hovedsaklig skyet
Nearby fog, Hovedsaklig skyet
 Vind fra calm
Vind: Stille
Temperatur: -14°C
Duggpunkt: -16°C
Fuktighet: 85%
Barometer: 1015 hPa
Oversikt: Nearby Fog
Clouds: Hovedsaklig skyet
Visibility: 7 km
Cloud details: Delvis skyet 30 m
Hovedsaklig skyet 823 m
2019/01/20 18:50 ENGM 201850Z 00000KT 7000 VCFG SCT001 BKN027 M14/M16 Q1015 TEMPO 2000 BCFG BKN002
 
ENNO - Notodden, Norway
Distance from station: VNV 112km
Oppdatert: 20/01/2019 18:50
NOT Current
Hovedsaklig skyet
Hovedsaklig skyet
 Vind fra varies
Vind: varies 2 km/h
Temperatur: -6°C
Duggpunkt: -7°C
Fuktighet: 93%
Barometer: 1017 hPa
Clouds: Hovedsaklig skyet
Visibility: 10 km
Cloud details: Hovedsaklig skyet 1189 m
2019/01/20 17:50 ENNO 201750Z VRB01KT 9999 BKN039 M06/M07 Q1017
ESGT - Trollhattan (pvt, Sweden
Distance from station: SØ 125km
Oppdatert: 20/01/2019 19:50
Delvis skyet
Delvis skyet
 Vind fra SØ
Vind: SØ 6 km/h
Temperatur: -6°C
Duggpunkt: -7°C
Fuktighet: 93%
Barometer: 1018 hPa
Clouds: Delvis skyet
Visibility: 10 km
Cloud details: Delvis skyet 1676 m
2019/01/20 18:50 ESGT 201850Z 14003KT 9999 SCT055 M06/M07 Q1018
 
ESIB - Satenas (swe-Afb, Sweden
Distance from station: SØ 129km
Oppdatert: 20/01/2019 19:50
Delvis skyet
Delvis skyet
 Vind fra ØSØ
Vind: ØSØ 6 km/h
Temperatur: -8°C
Duggpunkt: -9°C
Fuktighet: 93%
Barometer: 1017 hPa
Clouds: Delvis skyet
Visibility: 10 km
Cloud details: Delvis skyet 1494 m
2019/01/20 18:50 ESIB 201850Z AUTO 11003KT 9999 SCT049/// M08/M09 Q1017
ESOK - Karlstad North, Sweden
Distance from station: ØNØ 129km
Oppdatert: 20/01/2019 19:50
Klart
Klart
 Vind fra NNØ
Vind: NNØ 6 km/h
Temperatur: -13°C
Duggpunkt: -14°C
Fuktighet: 92%
Barometer: 1016 hPa
Oversikt: Klart
Visibility: greater than 10 km
2019/01/20 18:50 ESOK 201850Z 03003KT CAVOK M13/M14 Q1016
 
ESGP - Goteborg/Save (a, Sweden
Distance from station: SSØ 169km
Oppdatert: 02/01/2017 11:20
NOT Current
Klart
Klart
 Vind fra calm
Vind: Stille
Temperatur: -2°C
Duggpunkt: -4°C
Fuktighet: 86%
Barometer: 1012 hPa
Clouds: Klart
Visibility: 10 km
2017/01/02 10:20 ESGP 021020Z AUTO 00000KT 9999 NCD M02/M04 Q1012
ESGG - Goteborg/Landvet, Sweden
Distance from station: SSØ 188km
Oppdatert: 20/01/2019 19:50
Klart
Klart
 Vind fra SØ
Vind: SØ 7 km/h
Temperatur: -4°C
Vindkjøling: -7°C
Duggpunkt: -6°C
Fuktighet: 86%
Barometer: 1017 hPa
Oversikt: Klart
Visibility: greater than 10 km
2019/01/20 18:50 ESGG 201850Z 13004KT CAVOK M04/M06 Q1017 R03/19//95
 
EKSN - Sindal Airport, Denmark
Distance from station: SSV 199km
Oppdatert: 18/01/2019 13:50
NOT Current
Klart
Klart
 Vind fra VNV
Vind: VNV 20 km/h
Temperatur: 3°C
Vindkjøling: -2°C
Duggpunkt: -3°C
Fuktighet: 65%
Barometer: 1012 hPa
Oversikt: Klart
Visibility: greater than 10 km
2019/01/18 12:50 EKSN 181250Z 29011KT CAVOK 03/M03 Q1012
ENCN - Kristiansand/Kje, Norway
Distance from station: VSV 209km
Oppdatert: 20/01/2019 19:50
Delvis skyet
Delvis skyet
 Vind fra ØNØ
Vind: ØNØ 6 km/h
Temperatur: -2°C
Duggpunkt: -2°C
Fuktighet: 100%
Barometer: 1016 hPa
Clouds: Delvis skyet
Visibility: 10 km
Cloud details: Delvis skyet 427 m
2019/01/20 18:50 ENCN 201850Z 06003KT 9999 SCT014 M02/M02 Q1016
 
ENFG - Fagernes/Leirin, Norway
Distance from station: NNV 220km
Oppdatert: 22/04/2018 10:50
NOT Current
Klart
Klart
 Vind fra S
Vind: S 13 km/h
Temperatur: 6°C
Vindkjøling: 3°C
Duggpunkt: -3°C
Fuktighet: 53%
Barometer: 1014 hPa
Oversikt: Klart
Visibility: greater than 10 km
2018/04/22 08:50 ENFG 220850Z 19007KT CAVOK 06/M03 Q1014
ESOE - Orebro (private), Sweden
Distance from station: Ø 225km
Oppdatert: 20/01/2019 19:50
Klart
Klart
 Vind fra V
Vind: V 15 km/h
Temperatur: -7°C
Vindkjøling: -13°C
Duggpunkt: -10°C
Fuktighet: 79%
Barometer: 1016 hPa
Clouds: Klart
Visibility: 10 km
2019/01/20 18:50 ESOE 201850Z AUTO 26008KT 9999 NCD M07/M10 Q1016
 
ESGJ - Jonkoping Airpor, Sweden
Distance from station: SØ 238km
Oppdatert: 20/01/2019 19:50
Klart
Klart
 Vind fra VSV
Vind: VSV 6 km/h
Temperatur: -7°C
Duggpunkt: -8°C
Fuktighet: 93%
Barometer: 1016 hPa
Oversikt: Klart
Visibility: greater than 10 km
2019/01/20 18:50 ESGJ 201850Z 24003KT CAVOK M07/M08 Q1016 R01/19//70
EKYT - Alborg, Denmark
Distance from station: SSV 248km
Oppdatert: 20/01/2019 19:59
Mist, Overskyet
Mist, Overskyet
 Vind fra SSV
Vind: SSV 9 km/h
Temperatur: 1°C
Vindkjøling: -2°C
Duggpunkt: 0°C
Fuktighet: 93%
Barometer: 1018 hPa
Oversikt: Mist
Clouds: Overskyet
Visibility: 5 km
Cloud details: Few Clouds 1524 m
Overskyet 3048 m
2019/01/20 18:59 EKYT 201859Z AUTO 21005KT 4900 BR FEW050/// OVC100/// 01/00 Q1018 R26L/290195
 
ESCF - Linkoping/Malmen, Sweden
Distance from station: ØSØ 272km
Oppdatert: 20/01/2019 19:50
Klart
Klart
 Vind fra V
Vind: V 13 km/h
Temperatur: -5°C
Vindkjøling: -10°C
Duggpunkt: -7°C
Fuktighet: 86%
Barometer: 1017 hPa
Clouds: Klart
Visibility: 10 km
2019/01/20 18:50 ESCF 201850Z AUTO 27007KT 9999 NCD M05/M07 Q1017
ESSD - Borlange (swe-Af, Sweden
Distance from station: ØNØ 279km
Oppdatert: 20/01/2019 19:50
Klart
Klart
 Vind fra VSV
Vind: VSV 19 km/h
Temperatur: -10°C
Vindkjøling: -18°C
Duggpunkt: -12°C
Fuktighet: 85%
Barometer: 1014 hPa
Clouds: Klart
Visibility: 10 km
2019/01/20 18:50 ESSD 201850Z AUTO 25010KT 9999 NCD M10/M12 Q1014
 
ESSL - Linkoping/Saab, Sweden
Distance from station: ØSØ 280km
Oppdatert: 20/01/2019 19:50
Klart
Klart
 Vind fra VSV
Vind: VSV 7 km/h
Temperatur: -4°C
Vindkjøling: -7°C
Duggpunkt: -6°C
Fuktighet: 86%
Barometer: 1017 hPa
Clouds: Klart
Visibility: 10 km
2019/01/20 18:50 ESSL 201850Z AUTO 25004KT 9999 NCD M04/M06 Q1017
ESMT - Halmstad (swe-Af, Sweden
Distance from station: SSØ 303km
Oppdatert: 20/01/2019 19:20
Hovedsaklig skyet
Hovedsaklig skyet
 Vind fra Ø
Vind: Ø 7 km/h
Temperatur: 0°C
Vindkjøling: -3°C
Duggpunkt: -1°C
Fuktighet: 93%
Barometer: 1018 hPa
Clouds: Hovedsaklig skyet
Visibility: 10 km
Cloud details: Few Clouds 427 m
Delvis skyet 549 m
Hovedsaklig skyet 671 m
2019/01/20 18:20 ESMT 201820Z AUTO 08004KT 9999 FEW014/// SCT018/// BKN022/// 00/M01 Q1018